Dobrodošli na spletni strani vremenske postaje Senovo. Vse informacije so informativnega značaja, saj vremenska postaja ni del državne mreže meteoroloških postaj. OBVESTILO: Letni količini padavin navedeni na spletni strani je potrebno prišteti 98,1 mm, zaradi izgube podatkov.


Posebna pozornost v zvezi z vremenskimi dogajanji ni potrebna.    Posebna pozornost v zvezi z vremenskimi dogajanji ni potrebna.

Pogled proti Armezu več informacij Pogled proti Armezu


Lisca več informacij Lisca


Radar strel več informacij blitzortung!


Radar padavin več informacij rain snow radar


Obiščite še:

Template documentation
and downloads

And another site



Weather Underground, zgodovina - Tekstovno

Dnevni povzetek za Avgust 28, 2017 Enote:  Angleško    Metrično   Obe
« Predhodni Dan
Naslednji Dan »
Dnevni Tedenski Mesečni Letni Po meri
  Višja: Nižja: Povprečje:
Temperatura: 84.9 °F 61 °F 70.5 °F
Točka rosišča: 66 °F 57.4 °F 61.9 °F
Vlažnost: 94 % 45 % 76 %
Hitrost vetra: 5.7 mph 0 mph 1.6 mph
Sunki vetra: 12.5 mph - -
Veter:- - South
Zračni tlak: 30.1 in 30 in -
Padavine: 0.3 in    
Historical Graphs
 
 
Tabelarni podarki za Avgust 28, 2017
Čas Temperatura Točka rosišča Zračni tlak Veter Hitrost vetra Sunki vetra Vlažnost Intenziteta padavin (urna)
00:00 74.5 °F 57.4 °F 30 in ENE 2.4 mph 6.5 mph 55 % 0 in
00:05 74.3 °F 57.6 °F 30 in NNE 1.8 mph 3.6 mph 56 % 0 in
00:10 73.9 °F 58.3 °F 30 in NNE 1.8 mph 4.3 mph 58 % 0 in
00:15 73.6 °F 57.9 °F 30 in East 1.6 mph 4.3 mph 58 % 0 in
00:20 73.2 °F 57.9 °F 30 in South 2.6 mph 6.3 mph 59 % 0 in
00:25 73 °F 58.3 °F 30 in SW 3.5 mph 6.3 mph 60 % 0 in
00:30 72.9 °F 58.3 °F 30 in SSW 3.1 mph 5.4 mph 60 % 0 in
00:35 72.7 °F 58.5 °F 30.1 in South 2.1 mph 5.4 mph 61 % 0 in
00:40 72.5 °F 58.6 °F 30.1 in SSW 1.6 mph 4.7 mph 62 % 0 in
00:45 72.1 °F 58.8 °F 30.1 in SW 1.9 mph 3.8 mph 63 % 0 in
00:50 71.8 °F 59.4 °F 30.1 in SW 2.1 mph 7.2 mph 65 % 0 in
00:55 71.6 °F 59.2 °F 30.1 in SSW 3 mph 7.2 mph 65 % 0 in
01:00 71.4 °F 59.5 °F 30.1 in South 1.9 mph 6 mph 66 % 0 in
01:05 71.1 °F 59.5 °F 30 in West 0.5 mph 4.9 mph 67 % 0 in
01:10 70.9 °F 59.4 °F 30 in WNW 2 mph 4.9 mph 67 % 0 in
01:15 70.9 °F 59.7 °F 30 in WNW 2.2 mph 4.7 mph 68 % 0 in
01:20 70.5 °F 59.9 °F 30.1 in NW 0.4 mph 2.5 mph 69 % 0 in
01:25 70.2 °F 59.9 °F 30.1 in NE 0.2 mph 2.9 mph 70 % 0 in
01:30 70 °F 59.7 °F 30.1 in NE 0.3 mph 2.9 mph 70 % 0 in
01:35 70 °F 60.1 °F 30.1 in NE 0.8 mph 3.1 mph 71 % 0 in
01:40 69.8 °F 60.1 °F 30.1 in NNE 1.2 mph 3.1 mph 71 % 0 in
01:45 69.6 °F 60.3 °F 30.1 in ESE 1.1 mph 4 mph 72 % 0 in
01:50 69.6 °F 60.6 °F 30.1 in SE 1.3 mph 4 mph 73 % 0 in
01:55 69.6 °F 60.6 °F 30.1 in SE 1 mph 3.6 mph 73 % 0 in
02:00 69.6 °F 61 °F 30.1 in East 0.9 mph 2.5 mph 74 % 0 in
02:05 69.4 °F 60.8 °F 30.1 in East 0.9 mph 2.5 mph 74 % 0 in
02:10 69.4 °F 60.8 °F 30.1 in ENE 0.9 mph 3.4 mph 74 % 0 in
02:15 69.4 °F 60.8 °F 30.1 in East 1 mph 3.4 mph 74 % 0 in
02:20 69.4 °F 60.8 °F 30.1 in SSW 1.5 mph 3.4 mph 74 % 0 in
02:25 69.3 °F 60.6 °F 30.1 in SW 2.3 mph 3.4 mph 74 % 0 in
02:30 69.1 °F 60.8 °F 30.1 in WNW 1.3 mph 3.1 mph 75 % 0 in
02:35 68.9 °F 60.6 °F 30.1 in NNW 0.3 mph 2.7 mph 75 % 0 in
02:40 68.7 °F 60.4 °F 30.1 in NNE 0.1 mph 2.2 mph 75 % 0 in
02:45 68.5 °F 60.6 °F 30.1 in NW 0.7 mph 3.1 mph 76 % 0 in
02:50 68.2 °F 60.3 °F 30.1 in WNW 1 mph 3.1 mph 76 % 0 in
02:55 67.8 °F 60.6 °F 30.1 in West 0.3 mph 2.2 mph 78 % 0 in
03:00 67.5 °F 60.4 °F 30.1 in West 0.1 mph 2.5 mph 78 % 0 in
03:05 67.3 °F 60.3 °F 30.1 in West 0.5 mph 2.5 mph 78 % 0 in
03:10 66.9 °F 60.3 °F 30.1 in WNW 1 mph 2.7 mph 79 % 0 in
03:15 66.7 °F 60.1 °F 30.1 in NW 0.5 mph 2.7 mph 79 % 0 in
03:20 66.6 °F 59.7 °F 30.1 in SSE 1 mph 2.9 mph 79 % 0 in
03:25 66.4 °F 59.7 °F 30.1 in South 1.3 mph 2.9 mph 79 % 0 in
03:30 66 °F 60.1 °F 30.1 in NNW 1.2 mph 3.4 mph 81 % 0 in
03:35 65.8 °F 59.7 °F 30.1 in WNW 2 mph 3.4 mph 81 % 0 in
03:40 65.7 °F 59.7 °F 30.1 in West 1.1 mph 3.4 mph 81 % 0 in
03:45 65.5 °F 59.7 °F 30.1 in NNW 0.3 mph 2.5 mph 82 % 0 in
03:50 65.3 °F 59.7 °F 30.1 in NW 0.6 mph 2.5 mph 82 % 0 in
03:55 65.1 °F 59.5 °F 30.1 in West 0.8 mph 2.5 mph 82 % 0 in
04:00 64.8 °F 59.5 °F 30.1 in WSW 0.7 mph 2 mph 83 % 0 in
04:05 64.8 °F 59.5 °F 30.1 in West 0.4 mph 1.6 mph 83 % 0 in
04:10 64.4 °F 59.2 °F 30.1 in WSW 0.1 mph 1.1 mph 83 % 0 in
04:15 64.2 °F 58.8 °F 30.1 in Calm     83 % 0 in
04:20 64.2 °F 58.8 °F 30.1 in Calm     83 % 0 in
04:25 63.9 °F 58.8 °F 30.1 in Calm     84 % 0 in
04:30 63.9 °F 59.4 °F 30.1 in Calm     85 % 0 in
04:35 63.5 °F 58.6 °F 30.1 in Calm     84 % 0 in
04:40 63.3 °F 58.6 °F 30.1 in Calm     85 % 0 in
04:45 63.3 °F 58.6 °F 30.1 in SW 0.4 mph 2 mph 85 % 0 in
04:50 63.1 °F 58.6 °F 30.1 in SW 0.4 mph 2 mph 85 % 0 in
04:55 63 °F 58.6 °F 30.1 in Calm     86 % 0 in
05:00 62.8 °F 58.5 °F 30.1 in WNW 0.1 mph 1.6 mph 86 % 0 in
05:05 62.6 °F 58.5 °F 30.1 in WNW 0.1 mph 1.6 mph 86 % 0 in
05:10 62.4 °F 58.5 °F 30.1 in Calm     87 % 0 in
05:16 62.2 °F 58.3 °F 30.1 in Calm     87 % 0 in
05:21 62.2 °F 58.6 °F 30.1 in West 0.3 mph 2.5 mph 88 % 0 in
05:26 62.1 °F 58.5 °F 30.1 in West 0.3 mph 2.5 mph 88 % 0 in
05:31 62.1 °F 58.5 °F 30.1 in Calm     88 % 0 in
05:36 61.9 °F 58.3 °F 30.1 in Calm     88 % 0 in
05:41 61.7 °F 58.1 °F 30.1 in SSW 0.1 mph 2.2 mph 88 % 0 in
05:51 61.7 °F 58.1 °F 30.1 in SW 0.5 mph 2 mph 88 % 0 in
05:56 61.5 °F 57.9 °F 30.1 in WSW 0.3 mph 2.2 mph 88 % 0 in
06:01 61.3 °F 57.7 °F 30.1 in WSW 0.5 mph 2.2 mph 88 % 0 in
06:06 61.3 °F 58.1 °F 30.1 in WSW 0.3 mph 2 mph 89 % 0 in
06:11 61.2 °F 57.6 °F 30.1 in WSW 0.1 mph 1.3 mph 88 % 0 in
06:16 61 °F 57.7 °F 30.1 in Calm     89 % 0 in
06:21 61 °F 57.7 °F 30.1 in Calm     89 % 0 in
06:26 61 °F 57.7 °F 30.1 in SSW 0.1 mph 2.2 mph 89 % 0 in
06:31 61 °F 57.7 °F 30.1 in SSW 0.2 mph 2.2 mph 89 % 0 in
06:36 61 °F 57.7 °F 30.1 in North 0.1 mph   89 % 0 in
06:41 61 °F 57.7 °F 30.1 in Calm     89 % 0 in
06:46 61 °F 57.7 °F 30.1 in Calm     89 % 0 in
06:51 61 °F 57.9 °F 30.1 in WNW 0.2 mph 2 mph 90 % 0 in
06:56 61 °F 57.9 °F 30.1 in WNW 0.2 mph 2 mph 90 % 0 in
07:01 61.2 °F 58.3 °F 30.1 in WNW 0.1 mph 1.3 mph 90 % 0 in
07:06 61.2 °F 58.3 °F 30.1 in WNW 0.1 mph 1.3 mph 90 % 0 in
07:11 61.3 °F 58.5 °F 30.1 in Calm     90 % 0 in
07:16 61.5 °F 58.6 °F 30.1 in Calm     90 % 0 in
07:18 61.7 °F 58.6 °F 30.1 in Calm     90 % 0 in
07:24 61.9 °F 58.8 °F 30.1 in Calm     90 % 0 in
07:29 62.2 °F 59.4 °F 30.1 in Calm   1.6 mph 90 % 0 in
07:34 62.4 °F 59.4 °F 30.1 in WNW 0.3 mph 1.6 mph 90 % 0 in
07:39 62.8 °F 59.7 °F 30.1 in WNW 0.3 mph 1.6 mph 90 % 0 in
07:44 63.1 °F 60.3 °F 30.1 in Calm   0.9 mph 90 % 0 in
07:49 63.5 °F 60.4 °F 30.1 in Calm   0.9 mph 90 % 0 in
07:54 63.9 °F 61 °F 30.1 in Calm     90 % 0 in
07:59 64.2 °F 61.2 °F 30.1 in WSW 0.1 mph 1.1 mph 90 % 0 in
08:04 64.8 °F 61.3 °F 30.1 in WSW 0.1 mph 1.1 mph 89 % 0 in
08:09 65.1 °F 61.9 °F 30.1 in WSW 0.3 mph 1.6 mph 89 % 0 in
08:14 66.2 °F 63 °F 30.1 in WSW 0.3 mph 1.6 mph 89 % 0 in
08:19 66.7 °F 63.1 °F 30.1 in ESE 0.1 mph 2.2 mph 88 % 0 in
08:24 67.3 °F 63.3 °F 30.1 in ESE 0.2 mph 2.2 mph 87 % 0 in
08:29 67.8 °F 63.9 °F 30.1 in ESE 0.2 mph 1.6 mph 87 % 0 in
08:34 68.5 °F 63.9 °F 30.1 in ESE 0.1 mph 1.6 mph 85 % 0 in
08:39 68.9 °F 64.2 °F 30.1 in ESE 0.1 mph 1.6 mph 85 % 0 in
08:44 69.6 °F 63.9 °F 30.1 in ESE 0.1 mph 1.6 mph 82 % 0 in
08:49 70.2 °F 64 °F 30.1 in Calm     81 % 0 in
08:54 70.3 °F 63.9 °F 30.1 in Calm     80 % 0 in
08:59 70.7 °F 63.9 °F 30.1 in ESE 0.2 mph 2.2 mph 79 % 0 in
09:04 71.2 °F 64 °F 30.1 in ESE 0.6 mph 2.2 mph 78 % 0 in
09:05 71.2 °F 64 °F 30.1 in ESE 0.6 mph 2.2 mph 78 % 0 in
09:11 71.8 °F 64.2 °F 30.1 in SE 0.9 mph 2.7 mph 77 % 0 in
09:15 72.1 °F 64.2 °F 30.1 in SE 1.1 mph 2.7 mph 76 % 0 in
09:21 72.7 °F 64.2 °F 30.1 in SSE 0.8 mph 2.7 mph 75 % 0 in
09:26 73 °F 64.6 °F 30.1 in SE 0.9 mph 2.9 mph 75 % 0 in
09:31 73.8 °F 64.9 °F 30.1 in ESE 1.1 mph 2.9 mph 74 % 0 in
09:36 74.3 °F 64.8 °F 30.1 in ESE 0.9 mph 2.5 mph 72 % 0 in
09:41 74.5 °F 64.6 °F 30.1 in SE 0.7 mph 2.7 mph 71 % 0 in
09:46 75 °F 64.9 °F 30.1 in SE 1.1 mph 2.7 mph 71 % 0 in
09:51 75.4 °F 64.9 °F 30.1 in SE 0.7 mph 3.4 mph 70 % 0 in
09:56 75.9 °F 65.5 °F 30.1 in SE 1.1 mph 4 mph 70 % 0 in
10:01 76.3 °F 65.5 °F 30.1 in South 2.1 mph 4 mph 69 % 0 in
10:06 76.6 °F 65.7 °F 30.1 in South 2.1 mph 4.7 mph 69 % 0 in
10:11 77.2 °F 65.8 °F 30.1 in SE 2.1 mph 4.7 mph 68 % 0 in
10:16 77.5 °F 66 °F 30.1 in SE 2 mph 4.7 mph 68 % 0 in
10:21 77.9 °F 64.2 °F 30.1 in ESE 2.6 mph 5.8 mph 63 % 0 in
10:26 78.3 °F 65.1 °F 30.1 in ESE 3.2 mph 6.5 mph 64 % 0 in
10:31 78.6 °F 64.6 °F 30.1 in ESE 4.1 mph 7.8 mph 62 % 0 in
10:36 78.6 °F 64.6 °F 30.1 in ESE 4.9 mph 8.1 mph 62 % 0 in
10:41 78.8 °F 64.8 °F 30.1 in ESE 4.7 mph 8.1 mph 62 % 0 in
10:46 78.4 °F 63.9 °F 30.1 in East 4.9 mph 7.6 mph 61 % 0 in
10:51 78.3 °F 63.7 °F 30.1 in ESE 4.8 mph 8.1 mph 61 % 0 in
10:56 78.4 °F 63.3 °F 30.1 in ESE 4.1 mph 8.1 mph 60 % 0 in
11:01 78.8 °F 63.3 °F 30.1 in ESE 4 mph 7.8 mph 59 % 0 in
11:06 79 °F 63 °F 30.1 in East 3.7 mph 7.4 mph 58 % 0 in
11:11 79.2 °F 63.1 °F 30.1 in East 3.5 mph 8.1 mph 58 % 0 in
11:16 79.3 °F 63.9 °F 30.1 in East 3.4 mph 8.1 mph 59 % 0 in
11:21 79.7 °F 64 °F 30.1 in ESE 3.9 mph 6.9 mph 59 % 0 in
11:26 79.7 °F 63.1 °F 30.1 in East 4.3 mph 8.1 mph 57 % 0 in
11:31 79.7 °F 63.1 °F 30.1 in East 4.2 mph 8.1 mph 57 % 0 in
11:36 80.1 °F 63 °F 30.1 in ESE 4.6 mph 8.5 mph 56 % 0 in
11:41 80.4 °F 62.8 °F 30.1 in SE 3.7 mph 8.5 mph 55 % 0 in
11:46 80.8 °F 62.6 °F 30.1 in East 2.9 mph 6.3 mph 54 % 0 in
11:51 80.6 °F 61.9 °F 30.1 in ENE 3.8 mph 6.3 mph 53 % 0 in
11:56 81 °F 62.8 °F 30.1 in ENE 3.6 mph 6.7 mph 54 % 0 in
12:01 81.1 °F 63 °F 30.1 in East 2.5 mph 6.7 mph 54 % 0 in
12:06 81 °F 62.2 °F 30.1 in East 2.7 mph 6 mph 53 % 0 in
12:11 81.1 °F 62.4 °F 30.1 in East 3.1 mph 6 mph 53 % 0 in
12:16 81.1 °F 62.4 °F 30.1 in ESE 2.6 mph 5.4 mph 53 % 0 in
12:21 81.3 °F 62.6 °F 30.1 in ESE 2.7 mph 5.6 mph 53 % 0 in
12:26 81.5 °F 63.3 °F 30.1 in ESE 3.5 mph 9.8 mph 54 % 0 in
12:31 81.7 °F 63 °F 30.1 in East 3.5 mph 9.8 mph 53 % 0 in
12:36 81.9 °F 63.1 °F 30.1 in ESE 2.9 mph 5.6 mph 53 % 0 in
12:41 81.9 °F 63.1 °F 30.1 in East 3.1 mph 5.8 mph 53 % 0 in
12:46 82.2 °F 63.9 °F 30.1 in East 3.1 mph 5.8 mph 54 % 0 in
12:51 82.8 °F 64.4 °F 30.1 in SE 3.8 mph 10.1 mph 54 % 0 in
12:56 82.8 °F 63.3 °F 30.1 in SSE 4.3 mph 10.1 mph 52 % 0 in
13:01 82 °F 63.1 °F 30.1 in ESE 2.6 mph 5.8 mph 53 % 0 in
13:06 82 °F 63.1 °F 30.1 in ENE 2.8 mph 7.4 mph 53 % 0 in
13:11 82.2 °F 63.3 °F 30.1 in East 3.9 mph 7.4 mph 53 % 0 in
13:16 82.2 °F 63.3 °F 30.1 in ESE 4 mph 7.8 mph 53 % 0 in
13:21 82.2 °F 63.3 °F 30.1 in ESE 4 mph 7.8 mph 53 % 0 in
13:26 82.6 °F 63.7 °F 30.1 in ESE 4.4 mph 8.1 mph 53 % 0 in
13:31 82.4 °F 63 °F 30.1 in South 4.3 mph 8.1 mph 52 % 0 in
13:36 82 °F 62.8 °F 30.1 in SSW 3.4 mph 6 mph 52 % 0 in
13:37 81.9 °F 62.4 °F 30.1 in South 3.2 mph 6 mph 52 % 0 in
13:42 81.9 °F 63.1 °F 30.1 in East 2.7 mph 5.8 mph 53 % 0 in
13:47 81.9 °F 63.1 °F 30.1 in ESE 2.6 mph 7.8 mph 53 % 0 in
13:52 82 °F 63.1 °F 30.1 in SSE 3.2 mph 7.8 mph 53 % 0 in
13:57 81.9 °F 63.1 °F 30.1 in SE 3.7 mph 6 mph 53 % 0 in
14:02 82 °F 63.1 °F 30.1 in ESE 3.6 mph 7.2 mph 53 % 0 in
14:07 82.2 °F 63.3 °F 30.1 in ESE 4.1 mph 7.8 mph 53 % 0 in
14:12 82.6 °F 63.7 °F 30.1 in SE 4.3 mph 7.8 mph 53 % 0 in
14:17 83.1 °F 64.2 °F 30.1 in SSE 4.4 mph 7.6 mph 53 % 0 in
14:22 83.7 °F 64.2 °F 30.1 in SSE 4.7 mph 8.7 mph 52 % 0 in
14:27 83.8 °F 64.2 °F 30.1 in SSE 4.6 mph 8.7 mph 52 % 0 in
14:32 84.2 °F 63.5 °F 30 in SSE 4.1 mph 8.1 mph 50 % 0 in
14:37 84 °F 63.3 °F 30 in SE 4.1 mph 9.6 mph 50 % 0 in
14:42 84.2 °F 63 °F 30 in SE 4.5 mph 9.6 mph 49 % 0 in
14:47 84.4 °F 63.1 °F 30 in SE 5.1 mph 12.1 mph 49 % 0 in
14:52 84.6 °F 62.8 °F 30 in SE 4.7 mph 12.1 mph 48 % 0 in
14:57 84.7 °F 63 °F 30 in ESE 3.2 mph 7.8 mph 48 % 0 in
15:02 84.9 °F 62.4 °F 30 in ESE 2.9 mph 8.1 mph 47 % 0 in
15:07 84.4 °F 61.9 °F 30 in SE 3.8 mph 8.5 mph 47 % 0 in
15:12 84.4 °F 60.6 °F 30 in SE 4.4 mph 8.5 mph 45 % 0 in
15:17 84 °F 61.5 °F 30 in SE 3.6 mph 8.1 mph 47 % 0 in
15:22 83.5 °F 61.2 °F 30 in SE 2.1 mph 5.6 mph 47 % 0 in
15:27 83.3 °F 61 °F 30 in ESE 2.4 mph 6.3 mph 47 % 0 in
15:32 82.8 °F 60.4 °F 30 in East 3.2 mph 6.3 mph 47 % 0 in
15:37 82 °F 60.4 °F 30 in East 3.2 mph 6.3 mph 48 % 0 in
15:43 81.3 °F 59.2 °F 30 in East 2.9 mph 6.3 mph 47 % 0 in
15:48 80.6 °F 59.7 °F 30 in ENE 2.8 mph 9.2 mph 49 % 0 in
15:53 80.1 °F 60.3 °F 30 in NE 3.5 mph 9.2 mph 51 % 0 in
15:58 79 °F 61 °F 30 in NNE 2.8 mph 6.3 mph 54 % 0 in
16:03 77.7 °F 62.8 °F 30 in NNE 2.5 mph 4.3 mph 60 % 0.01 in
16:08 76.3 °F 64.6 °F 30 in NNE 2.7 mph 4.3 mph 67 % 0.11 in
16:13 75.2 °F 64.2 °F 30 in North 2.1 mph 3.4 mph 69 % 0.2 in
16:18 74.1 °F 64.6 °F 30.1 in NNW 2 mph 4 mph 72 % 0.23 in
16:23 73.6 °F 64.8 °F 30.1 in North 2.2 mph 4.3 mph 74 % 0.25 in
16:28 72.9 °F 65.1 °F 30.1 in NNE 2 mph 4.3 mph 77 % 0.26 in
16:33 72.3 °F 63.9 °F 30.1 in ENE 1.8 mph 5.6 mph 75 % 0.28 in
16:39 72.1 °F 64.2 °F 30.1 in SE 2.7 mph 8.9 mph 76 % 0.29 in
16:44 71.4 °F 63.5 °F 30.1 in SE 5.4 mph 12.5 mph 76 % 0.29 in
16:49 70.5 °F 60.6 °F 30 in SE 5.7 mph 12.5 mph 71 % 0.3 in
16:54 69.6 °F 61.3 °F 30 in ENE 3.6 mph 9.8 mph 75 % 0.3 in
16:59 69.3 °F 61.3 °F 30 in NNW 3 mph 7.2 mph 76 % 0.3 in
17:04 68.7 °F 62.2 °F 30 in NW 2.4 mph 8.1 mph 80 % 0.27 in
17:09 68.4 °F 61.5 °F 30 in WNW 3 mph 8.1 mph 79 % 0.19 in
17:14 68.2 °F 61.9 °F 30 in West 4.3 mph 6 mph 80 % 0.1 in
17:19 68 °F 61.5 °F 30 in West 3.4 mph 6.3 mph 80 % 0.06 in
17:24 68 °F 61.9 °F 30 in SW 3.4 mph 6.3 mph 81 % 0.06 in
17:29 67.8 °F 62.1 °F 30 in SSE 3.9 mph 7.8 mph 82 % 0.04 in
17:34 67.8 °F 62.4 °F 30.1 in South 3.2 mph 7.8 mph 83 % 0.03 in
17:39 67.8 °F 62.8 °F 30.1 in South 2.1 mph 4 mph 84 % 0.01 in
17:44 67.8 °F 63.1 °F 30.1 in SSE 1.6 mph 3.4 mph 85 % 0.01 in
17:49 68 °F 63.3 °F 30.1 in South 1.3 mph 2.9 mph 85 % 0.01 in
17:54 68 °F 63.3 °F 30.1 in East 0.6 mph 2.7 mph 85 % 0.01 in
17:59 68.2 °F 63.9 °F 30.1 in South 1.6 mph 6.3 mph 86 % 0.01 in
18:04 68.4 °F 64 °F 30.1 in South 3.1 mph 6.3 mph 86 % 0 in
18:09 68.5 °F 63.9 °F 30.1 in South 3.2 mph 5.8 mph 85 % 0 in
18:14 68.5 °F 64.2 °F 30.1 in South 2.7 mph 5.8 mph 86 % 0 in
18:19 68.5 °F 64.2 °F 30.1 in SW 2 mph 3.6 mph 86 % 0 in
18:24 68.5 °F 64.2 °F 30.1 in SSW 2.6 mph 6 mph 86 % 0 in
18:29 68.5 °F 64.2 °F 30.1 in SSW 3.7 mph 6 mph 86 % 0 in
18:34 68.4 °F 64.2 °F 30.1 in SSW 4.2 mph 7.4 mph 87 % 0 in
18:39 68.4 °F 64 °F 30.1 in South 3.1 mph 7.4 mph 86 % 0 in
18:44 68.2 °F 64.2 °F 30.1 in ESE 1.3 mph 4.7 mph 87 % 0 in
18:49 68.4 °F 64 °F 30 in SE 1.8 mph 4.3 mph 86 % 0 in
18:54 68.2 °F 64.2 °F 30 in SW 3.3 mph 6.3 mph 87 % 0 in
18:59 67.8 °F 64 °F 30 in West 3 mph 6.3 mph 88 % 0 in
19:04 67.8 °F 64 °F 30.1 in WNW 1.8 mph 2.7 mph 88 % 0 in
19:09 67.8 °F 64 °F 30.1 in West 0.7 mph 2.7 mph 88 % 0 in
19:14 67.6 °F 64.2 °F 30.1 in WNW 0.2 mph 3.1 mph 89 % 0 in
19:19 67.5 °F 64 °F 30.1 in WSW 1.1 mph 3.8 mph 89 % 0 in
19:24 67.3 °F 63.9 °F 30.1 in SW 1.3 mph 3.8 mph 89 % 0 in
19:29 67.1 °F 63.7 °F 30.1 in South 0.5 mph 2.5 mph 89 % 0 in
19:34 66.9 °F 63.7 °F 30.1 in WSW 1.4 mph 6.3 mph 89 % 0 in
19:39 66.9 °F 63.7 °F 30.1 in West 2.3 mph 6.3 mph 89 % 0 in
19:44 66.7 °F 63.7 °F 30.1 in WNW 1.7 mph 3.1 mph 90 % 0 in
19:49 66.6 °F 63.5 °F 30 in WNW 0.7 mph 3.1 mph 90 % 0 in
19:54 66.4 °F 63.3 °F 30 in Calm   0.9 mph 90 % 0 in
19:59 66.4 °F 63.3 °F 30 in Calm     90 % 0 in
20:04 66.2 °F 63.1 °F 30.1 in Calm     90 % 0 in
20:09 66.2 °F 63.1 °F 30.1 in Calm     90 % 0 in
20:14 66 °F 63.3 °F 30.1 in Calm     91 % 0 in
20:19 66 °F 63.3 °F 30.1 in Calm     91 % 0 in
20:24 65.8 °F 63.1 °F 30.1 in Calm     91 % 0 in
20:29 65.8 °F 63.1 °F 30.1 in Calm     91 % 0 in
20:34 65.7 °F 63 °F 30.1 in Calm     91 % 0 in
20:39 65.7 °F 63 °F 30.1 in Calm     91 % 0 in
20:44 65.5 °F 62.8 °F 30.1 in West 0.2 mph 2 mph 91 % 0 in
20:49 65.5 °F 63.1 °F 30.1 in West 0.2 mph 2 mph 92 % 0 in
20:54 65.5 °F 63.1 °F 30.1 in Calm     92 % 0 in
20:59 65.5 °F 63.1 °F 30.1 in Calm     92 % 0 in
21:05 65.3 °F 63 °F 30.1 in Calm     92 % 0 in
21:10 65.3 °F 63 °F 30.1 in Calm     92 % 0 in
21:20 65.1 °F 62.8 °F 30.1 in Calm     92 % 0 in
21:25 65.1 °F 62.8 °F 30.1 in SE 0.1 mph 2 mph 92 % 0 in
21:30 65.1 °F 62.8 °F 30.1 in SE 0.2 mph 2 mph 92 % 0 in
21:35 65.1 °F 62.8 °F 30.1 in East 0.1 mph 1.1 mph 92 % 0 in
21:40 65.1 °F 62.8 °F 30.1 in WNW 0.1 mph 1.6 mph 92 % 0 in
21:45 65.1 °F 63 °F 30.1 in WNW 0.5 mph 2.5 mph 93 % 0 in
21:50 64.9 °F 63 °F 30.1 in WNW 0.4 mph 2.5 mph 93 % 0 in
21:55 64.9 °F 63 °F 30.1 in Calm     93 % 0 in
22:00 64.9 °F 63 °F 30.1 in Calm     93 % 0 in
22:05 64.8 °F 62.8 °F 30.1 in Calm     93 % 0 in
22:10 64.8 °F 62.8 °F 30.1 in Calm     93 % 0 in
22:15 64.8 °F 62.8 °F 30.1 in Calm     93 % 0 in
22:20 64.8 °F 62.4 °F 30.1 in Calm     92 % 0 in
22:25 64.6 °F 62.4 °F 30.1 in Calm     93 % 0 in
22:30 64.6 °F 62.4 °F 30.1 in Calm     93 % 0 in
22:35 64.6 °F 62.4 °F 30.1 in Calm     93 % 0 in
22:40 64.6 °F 62.4 °F 30.1 in Calm     93 % 0 in
22:45 64.8 °F 62.8 °F 30.1 in Calm     93 % 0 in
22:50 64.6 °F 62.4 °F 30.1 in Calm     93 % 0 in
22:55 64.6 °F 62.4 °F 30.1 in Calm   1.3 mph 93 % 0 in
23:00 64.4 °F 62.2 °F 30.1 in Calm   1.3 mph 93 % 0 in
23:05 64.4 °F 62.2 °F 30.1 in Calm     93 % 0 in
23:10 64.4 °F 62.2 °F 30.1 in Calm     93 % 0 in
23:15 64.4 °F 62.2 °F 30.1 in Calm     93 % 0 in
23:20 64.2 °F 62.4 °F 30.1 in WNW 0.2 mph 2.5 mph 94 % 0 in
23:21 64 °F 62.2 °F 30.1 in WNW 0.5 mph 2.5 mph 94 % 0 in
23:26 63.9 °F 61.9 °F 30.1 in WNW 0.7 mph 2.5 mph 93 % 0 in
23:31 63.9 °F 61.9 °F 30.1 in WNW 0.2 mph 1.6 mph 93 % 0 in
23:36 63.9 °F 62.1 °F 30.1 in Calm     94 % 0 in
23:41 63.7 °F 61.5 °F 30.1 in WNW 0.4 mph 2.2 mph 93 % 0 in
23:46 63.5 °F 61.3 °F 30.1 in WNW 0.5 mph 2.7 mph 93 % 0 in
23:51 63.3 °F 61.3 °F 30.1 in WNW 0.6 mph 2.7 mph 93 % 0 in
23:56 63.1 °F 61.2 °F 30.1 in WNW 0.8 mph 3.1 mph 93 % 0 in
Vremenska postaja Senovo
Podatki zbrani iz Weather Underground - 3 mb

Script developed by  Jim McMurry - jmcmurry@mwt.net Adapted for the template by  Wim van der Kuil - Leuven-Template.eu

Vremenski podatki so objavljeni na:

WeatherCloud

Weather Underground

AWEKAS

HAMweather, WeatherForYou, PWS Weather

MapView

Geostik

Slovenia weather network

Oprema, ki se uporablja:

Vremenski program
Cumulus

Cumulus